Time;durP1;ratioP1;P1;durP2;ratioP2;P2;SDS_P1;SDS_P2;PMS_P1;PMS_P2;Temp;Humidity;BMP_temperature;BMP_pressure;BME280_temperature;BME280_humidity;BME280_pressure;Samples;Min_cycle;Max_cycle;Signal;HPM_P1;HPM_P2
2021/12/08 00:00:45;;;;;;;;;;;4.70;1.00;;;;;;5064505;28;19920;-84
2021/12/08 00:03:11;;;;;;;;;;;4.70;1.00;;;;;;5040923;28;20359;-85
2021/12/08 00:05:38;;;;;;;;;;;4.70;1.00;;;;;;5056404;28;19936;-84
2021/12/08 00:08:05;;;;;;;;;;;4.70;1.00;;;;;;5048584;28;19923;-85
2021/12/08 00:13:07;;;;;;;;;;;4.70;1.00;;;;;;5068552;28;19913;-85
2021/12/08 00:15:35;;;;;;;;;;;4.70;1.00;;;;;;5055660;28;19916;-84
2021/12/08 00:18:01;;;;;;;;;;;4.70;1.00;;;;;;5071093;28;19912;-85
2021/12/08 00:20:29;;;;;;;;;;;4.70;1.00;;;;;;5049317;28;19916;-84
2021/12/08 00:22:54;;;;;;;;;;;4.80;1.00;;;;;;5037392;28;19920;-84
2021/12/08 00:25:20;;;;;;;;;;;4.80;1.00;;;;;;5057550;28;19913;-85
2021/12/08 00:27:46;;;;;;;;;;;4.80;1.00;;;;;;5040264;28;19913;-85
2021/12/08 00:30:11;;;;;;;;;;;4.90;1.00;;;;;;5041873;28;19917;-84
2021/12/08 00:32:37;;;;;;;;;;;4.90;1.00;;;;;;5072891;28;19913;-85
2021/12/08 00:35:03;;;;;;;;;;;4.90;1.00;;;;;;5055770;28;19919;-84
2021/12/08 00:37:29;;;;;;;;;;;5.00;1.00;;;;;;5050682;28;19913;-84
2021/12/08 00:39:54;;;;;;;;;;;5.00;1.00;;;;;;5037145;28;19921;-84
2021/12/08 00:42:20;;;;;;;;;;;5.00;1.00;;;;;;5045823;28;19916;-85
2021/12/08 00:44:46;;;;;;;;;;;5.10;1.00;;;;;;5049866;28;19917;-84
2021/12/08 00:47:11;;;;;;;;;;;5.10;1.00;;;;;;5059667;28;19920;-84
2021/12/08 00:49:39;;;;;;;;;;;5.10;1.00;;;;;;5062148;28;19948;-84
2021/12/08 00:52:05;;;;;;;;;;;5.10;1.00;;;;;;5067390;28;19920;-84
2021/12/08 00:54:30;;;;;;;;;;;5.20;1.00;;;;;;5054305;28;19920;-84
2021/12/08 00:56:57;;;;;;;;;;;5.20;1.00;;;;;;5046778;28;20404;-84
2021/12/08 00:59:23;;;;;;;;;;;5.20;1.00;;;;;;5058143;28;19917;-85
2021/12/08 01:01:48;;;;;;;;;;;5.30;1.00;;;;;;5025838;28;20008;-84
2021/12/08 01:04:15;;;;;;;;;;;5.30;1.00;;;;;;5036736;28;19990;-84
2021/12/08 01:06:41;;;;;;;;;;;5.30;1.00;;;;;;5049203;28;19913;-85
2021/12/08 01:09:07;;;;;;;;;;;5.30;1.00;;;;;;5068439;28;19992;-85
2021/12/08 01:11:32;;;;;;;;;;;5.40;1.00;;;;;;5068624;28;20316;-84
2021/12/08 01:13:58;;;;;;;;;;;5.40;1.00;;;;;;5047122;28;19992;-84
2021/12/08 01:16:24;;;;;;;;;;;5.40;1.00;;;;;;5075751;28;20106;-85
2021/12/08 01:18:49;;;;;;;;;;;5.50;1.00;;;;;;5035851;28;20010;-84
2021/12/08 01:21:17;;;;;;;;;;;5.50;1.00;;;;;;5083761;28;19909;-85
2021/12/08 01:23:43;;;;;;;;;;;5.50;1.00;;;;;;5071925;28;19979;-84
2021/12/08 01:26:09;;;;;;;;;;;5.60;1.00;;;;;;5054208;28;19954;-84
2021/12/08 01:28:35;;;;;;;;;;;5.60;1.00;;;;;;5062033;28;20018;-84
2021/12/08 01:31:01;;;;;;;;;;;5.70;1.00;;;;;;5051350;28;19917;-84
2021/12/08 01:33:30;;;;;;;;;;;5.80;1.00;;;;;;5059484;28;19912;-85
2021/12/08 01:35:56;;;;;;;;;;;5.90;1.00;;;;;;5070864;28;19984;-85
2021/12/08 01:38:21;;;;;;;;;;;6.00;1.00;;;;;;5038692;28;19956;-85
2021/12/08 01:40:47;;;;;;;;;;;6.10;1.00;;;;;;5045853;28;19916;-85
2021/12/08 01:43:24;;;;;;;;;;;6.10;1.00;;;;;;5069341;28;20293;-85
2021/12/08 01:46:00;;;;;;;;;;;6.20;1.00;;;;;;5046246;28;19917;-85
2021/12/08 01:48:27;;;;;;;;;;;6.30;1.00;;;;;;5035787;28;19913;-85
2021/12/08 01:50:54;;;;;;;;;;;6.30;1.00;;;;;;5071125;28;19944;-84
2021/12/08 01:53:20;;;;;;;;;;;6.30;1.00;;;;;;5059143;28;19939;-85
2021/12/08 01:55:45;;;;;;;;;;;6.30;1.00;;;;;;5068277;28;19913;-84
2021/12/08 01:58:11;;;;;;;;;;;6.30;1.00;;;;;;5056561;28;19913;-84
2021/12/08 02:00:39;;;;;;;;;;;6.30;1.00;;;;;;5068709;28;19939;-84
2021/12/08 02:03:05;;;;;;;;;;;6.30;1.00;;;;;;5046628;28;19924;-85
2021/12/08 02:05:31;;;;;;;;;;;6.30;1.00;;;;;;5056312;28;20273;-84
2021/12/08 02:07:56;;;;;;;;;;;6.30;1.00;;;;;;5037097;28;19913;-84
2021/12/08 02:10:23;;;;;;;;;;;6.40;1.00;;;;;;5061793;28;19979;-84
2021/12/08 02:12:48;;;;;;;;;;;6.40;1.00;;;;;;5036921;28;19913;-85
2021/12/08 02:15:16;;;;;;;;;;;6.40;1.00;;;;;;5064811;28;19919;-84
2021/12/08 02:17:41;;;;;;;;;;;6.40;1.00;;;;;;5060119;28;19934;-85
2021/12/08 02:20:08;;;;;;;;;;;6.40;1.00;;;;;;5051660;28;19917;-84
2021/12/08 02:22:34;;;;;;;;;;;6.40;1.00;;;;;;5049188;28;19931;-85
2021/12/08 02:24:59;;;;;;;;;;;6.50;1.00;;;;;;5064416;28;20434;-84
2021/12/08 02:27:25;;;;;;;;;;;6.50;1.00;;;;;;5047182;28;19924;-84
2021/12/08 02:30:00;;;;;;;;;;;6.50;1.00;;;;;;5039062;28;19913;-84
2021/12/08 02:46:37;;;;;;;;;;;6.60;1.00;;;;;;5056095;28;19919;-84
2021/12/08 02:48:52;;;;;;;;;;;6.70;1.00;;;;;;5056567;28;19935;-85
2021/12/08 02:51:20;;;;;;;;;;;6.70;1.00;;;;;;5054040;28;19925;-85
2021/12/08 02:53:47;;;;;;;;;;;6.80;1.00;;;;;;5036479;28;19913;-84
2021/12/08 02:56:13;;;;;;;;;;;6.80;1.00;;;;;;5042896;28;20011;-85
2021/12/08 02:58:38;;;;;;;;;;;6.80;1.00;;;;;;5070188;28;19912;-85
2021/12/08 03:01:05;;;;;;;;;;;6.80;1.00;;;;;;5056557;28;19921;-85
2021/12/08 03:03:30;;;;;;;;;;;6.80;1.00;;;;;;5061730;28;19982;-85
2021/12/08 03:05:56;;;;;;;;;;;6.80;1.00;;;;;;5061874;28;20513;-85
2021/12/08 03:08:22;;;;;;;;;;;6.80;1.00;;;;;;5056495;28;19979;-85
2021/12/08 03:10:50;;;;;;;;;;;6.80;99.90;;;;;;5054657;28;19913;-85
2021/12/08 03:13:15;;;;;;;;;;;6.80;99.90;;;;;;5048391;28;19963;-85
2021/12/08 03:15:43;;;;;;;;;;;6.80;99.90;;;;;;5065449;28;20400;-85
2021/12/08 03:18:08;;;;;;;;;;;6.90;99.90;;;;;;5038174;28;19913;-85
2021/12/08 03:20:45;;;;;;;;;;;6.80;99.90;;;;;;5065178;28;19924;-85
2021/12/08 03:23:14;;;;;;;;;;;6.80;99.90;;;;;;5054613;28;19920;-85
2021/12/08 03:25:43;;;;;;;;;;;6.90;99.90;;;;;;5042469;28;19959;-85
2021/12/08 03:28:18;;;;;;;;;;;7.00;99.90;;;;;;5039159;28;19959;-84
2021/12/08 03:31:00;;;;;;;;;;;6.90;99.90;;;;;;5061036;28;19913;-84
2021/12/08 03:33:26;;;;;;;;;;;6.90;99.90;;;;;;5035730;28;19936;-84
2021/12/08 03:35:51;;;;;;;;;;;6.90;99.90;;;;;;5053826;28;19909;-84
2021/12/08 03:38:18;;;;;;;;;;;6.90;99.90;;;;;;5055742;28;19916;-84
2021/12/08 03:40:44;;;;;;;;;;;6.90;99.90;;;;;;5033235;28;19917;-85
2021/12/08 03:43:09;;;;;;;;;;;6.90;99.90;;;;;;5036951;28;19913;-84
2021/12/08 03:45:37;;;;;;;;;;;6.90;99.90;;;;;;5020379;28;19969;-84
2021/12/08 03:48:08;;;;;;;;;;;6.90;99.90;;;;;;5052325;28;20391;-85
2021/12/08 03:50:36;;;;;;;;;;;6.90;99.90;;;;;;5040412;28;19913;-83
2021/12/08 03:53:01;;;;;;;;;;;6.90;99.90;;;;;;5033351;28;19917;-84
2021/12/08 03:55:27;;;;;;;;;;;6.90;99.90;;;;;;5066752;28;20285;-84
2021/12/08 03:57:52;;;;;;;;;;;6.90;99.90;;;;;;5063634;28;19913;-85
2021/12/08 04:00:19;;;;;;;;;;;6.90;99.90;;;;;;5058546;28;19913;-84
2021/12/08 04:02:45;;;;;;;;;;;6.90;99.90;;;;;;5043948;28;20320;-84
2021/12/08 04:05:12;;;;;;;;;;;6.80;99.90;;;;;;5048313;28;19909;-84
2021/12/08 04:07:43;;;;;;;;;;;6.80;99.90;;;;;;5059753;28;19920;-84
2021/12/08 04:10:16;;;;;;;;;;;6.80;99.90;;;;;;5059299;28;19955;-85
2021/12/08 04:12:42;;;;;;;;;;;6.80;99.90;;;;;;5061121;28;19912;-85
2021/12/08 04:15:08;;;;;;;;;;;6.80;99.90;;;;;;5058811;28;19919;-85
2021/12/08 04:17:37;;;;;;;;;;;6.80;99.90;;;;;;5064366;28;19917;-85
2021/12/08 04:20:08;;;;;;;;;;;6.80;99.90;;;;;;5051243;28;19916;-84
2021/12/08 04:22:35;;;;;;;;;;;6.80;99.90;;;;;;5042515;28;19920;-85
2021/12/08 04:25:03;;;;;;;;;;;6.80;99.90;;;;;;5041484;28;19995;-85
2021/12/08 04:27:32;;;;;;;;;;;6.80;59.30;;;;;;5055917;28;19909;-83
2021/12/08 04:29:57;;;;;;;;;;;6.80;60.80;;;;;;5076769;28;19916;-86
2021/12/08 04:32:25;;;;;;;;;;;6.80;70.20;;;;;;5043380;28;19909;-84
2021/12/08 04:34:51;;;;;;;;;;;6.70;53.50;;;;;;5066763;28;19913;-84
2021/12/08 04:37:23;;;;;;;;;;;6.70;1.40;;;;;;5039078;28;19919;-85
2021/12/08 04:40:07;;;;;;;;;;;6.70;1.00;;;;;;5071800;28;19924;-85
2021/12/08 04:45:21;;;;;;;;;;;6.70;1.00;;;;;;5076872;28;19986;-85
2021/12/08 04:48:42;;;;;;;;;;;6.60;1.00;;;;;;5073931;28;19912;-85
2021/12/08 04:53:29;;;;;;;;;;;6.60;1.00;;;;;;5051581;28;19976;-84
2021/12/08 05:01:29;;;;;;;;;;;6.40;1.00;;;;;;5059225;28;20008;-84
2021/12/08 05:06:51;;;;;;;;;;;6.40;1.00;;;;;;5065364;28;19919;-85
2021/12/08 05:09:19;;;;;;;;;;;6.30;17.90;;;;;;5057744;28;20486;-84
2021/12/08 05:11:50;;;;;;;;;;;6.30;73.90;;;;;;5058696;28;20078;-84
2021/12/08 05:14:19;;;;;;;;;;;6.30;99.90;;;;;;5053005;28;20391;-84
2021/12/08 05:16:52;;;;;;;;;;;6.30;99.90;;;;;;5069096;28;19912;-84
2021/12/08 05:19:20;;;;;;;;;;;6.30;99.90;;;;;;5062907;28;19987;-84
2021/12/08 05:21:56;;;;;;;;;;;6.20;99.90;;;;;;5044122;28;19912;-85
2021/12/08 05:24:24;;;;;;;;;;;6.20;99.90;;;;;;5065756;28;19972;-85
2021/12/08 05:26:52;;;;;;;;;;;6.30;99.90;;;;;;5046895;28;19913;-85
2021/12/08 05:29:20;;;;;;;;;;;6.20;99.90;;;;;;5034268;28;19912;-84
2021/12/08 05:31:46;;;;;;;;;;;6.20;99.90;;;;;;5060966;28;20411;-84
2021/12/08 05:34:11;;;;;;;;;;;6.20;99.90;;;;;;5065386;28;19913;-85
2021/12/08 05:36:38;;;;;;;;;;;6.20;99.90;;;;;;5069013;28;19912;-85
2021/12/08 05:39:08;;;;;;;;;;;6.30;32.50;;;;;;5067066;28;20396;-84
2021/12/08 05:41:35;;;;;;;;;;;6.30;1.00;;;;;;5065387;28;20356;-83
2021/12/08 05:44:02;;;;;;;;;;;6.30;1.00;;;;;;5050511;28;19916;-85
2021/12/08 05:46:28;;;;;;;;;;;6.30;1.00;;;;;;5056042;28;19932;-84
2021/12/08 05:48:54;;;;;;;;;;;6.30;1.00;;;;;;5060630;28;19959;-84
2021/12/08 05:51:22;;;;;;;;;;;6.30;1.00;;;;;;5051917;28;19916;-85
2021/12/08 05:53:48;;;;;;;;;;;6.30;1.00;;;;;;5042360;28;19909;-85
2021/12/08 05:56:15;;;;;;;;;;;6.30;1.00;;;;;;5038262;28;20380;-85
2021/12/08 05:58:42;;;;;;;;;;;6.30;1.00;;;;;;5067887;28;19916;-85
2021/12/08 06:01:17;;;;;;;;;;;6.30;1.00;;;;;;5045370;28;19984;-85
2021/12/08 06:03:43;;;;;;;;;;;6.30;1.00;;;;;;5029434;28;19909;-85
2021/12/08 06:06:09;;;;;;;;;;;6.20;1.00;;;;;;5062996;28;19916;-84
2021/12/08 06:08:35;;;;;;;;;;;6.20;1.00;;;;;;5054104;28;19927;-84
2021/12/08 06:11:01;;;;;;;;;;;6.20;1.00;;;;;;5051657;28;19913;-85
2021/12/08 06:13:27;;;;;;;;;;;6.20;1.00;;;;;;5044414;28;19913;-85
2021/12/08 06:15:53;;;;;;;;;;;6.30;99.90;;;;;;5041849;28;19908;-85
2021/12/08 06:18:22;;;;;;;;;;;6.30;99.90;;;;;;5059209;28;19912;-85
2021/12/08 06:20:47;;;;;;;;;;;6.30;99.90;;;;;;5049814;28;19935;-85
2021/12/08 06:23:13;;;;;;;;;;;6.30;99.90;;;;;;5058460;28;19956;-85
2021/12/08 06:25:39;;;;;;;;;;;6.30;99.90;;;;;;5049064;28;19932;-85
2021/12/08 06:28:05;;;;;;;;;;;6.30;99.90;;;;;;5040949;28;19913;-84
2021/12/08 06:30:32;;;;;;;;;;;6.30;99.90;;;;;;5035477;28;19931;-85
2021/12/08 06:32:58;;;;;;;;;;;6.30;99.90;;;;;;5071594;28;19913;-84
2021/12/08 06:35:26;;;;;;;;;;;6.20;1.00;;;;;;5065079;28;19920;-85
2021/12/08 06:37:52;;;;;;;;;;;6.20;99.90;;;;;;5043545;28;19913;-85
2021/12/08 06:40:24;;;;;;;;;;;6.30;99.90;;;;;;5060073;28;19923;-84
2021/12/08 06:42:52;;;;;;;;;;;6.20;1.00;;;;;;5068076;28;19916;-85
2021/12/08 06:45:19;;;;;;;;;;;6.20;1.00;;;;;;5049838;28;19917;-85
2021/12/08 06:47:45;;;;;;;;;;;6.20;1.00;;;;;;5059487;28;19913;-84
2021/12/08 06:50:17;;;;;;;;;;;6.20;1.00;;;;;;5069650;28;20132;-84
2021/12/08 06:52:43;;;;;;;;;;;6.20;99.90;;;;;;5051679;28;19913;-85
2021/12/08 06:55:30;;;;;;;;;;;6.10;99.90;;;;;;5049054;28;19971;-85
2021/12/08 06:57:57;;;;;;;;;;;6.20;99.90;;;;;;5051973;28;19955;-85
2021/12/08 07:00:35;;;;;;;;;;;6.30;99.90;;;;;;5052253;28;19917;-85
2021/12/08 07:03:31;;;;;;;;;;;6.30;1.00;;;;;;5034407;28;19913;-84
2021/12/08 07:08:25;;;;;;;;;;;6.30;1.00;;;;;;5057984;28;20337;-83
2021/12/08 07:10:53;;;;;;;;;;;6.30;99.90;;;;;;5055638;28;19913;-83
2021/12/08 07:13:20;;;;;;;;;;;6.30;99.90;;;;;;5054743;28;20396;-83
2021/12/08 07:15:58;;;;;;;;;;;6.30;99.90;;;;;;5060153;28;19917;-85
2021/12/08 07:18:26;;;;;;;;;;;6.30;99.90;;;;;;5058031;28;19909;-85
2021/12/08 07:20:54;;;;;;;;;;;6.30;99.90;;;;;;5059650;28;19928;-84
2021/12/08 07:23:19;;;;;;;;;;;6.30;99.90;;;;;;5066441;28;19901;-84
2021/12/08 07:25:45;;;;;;;;;;;6.30;99.90;;;;;;5062227;28;19913;-84
2021/12/08 07:28:12;;;;;;;;;;;6.30;99.90;;;;;;5069255;28;19976;-84
2021/12/08 07:30:41;;;;;;;;;;;6.30;99.90;;;;;;5048629;28;19917;-84
2021/12/08 07:33:07;;;;;;;;;;;6.30;99.90;;;;;;5042416;28;19924;-84
2021/12/08 07:35:36;;;;;;;;;;;6.30;99.90;;;;;;5062492;28;19976;-85
2021/12/08 07:38:02;;;;;;;;;;;6.20;99.90;;;;;;5061797;28;19917;-83
2021/12/08 07:40:30;;;;;;;;;;;6.20;99.90;;;;;;5045664;28;19917;-84
2021/12/08 07:42:59;;;;;;;;;;;6.20;99.90;;;;;;5064642;28;20411;-84
2021/12/08 07:45:31;;;;;;;;;;;6.20;99.90;;;;;;5047044;28;20023;-84
2021/12/08 07:47:57;;;;;;;;;;;6.20;99.90;;;;;;5048141;28;20344;-84
2021/12/08 07:50:26;;;;;;;;;;;6.20;99.90;;;;;;5054793;28;20008;-84
2021/12/08 07:52:53;;;;;;;;;;;6.20;99.90;;;;;;5049257;28;19913;-84
2021/12/08 07:55:22;;;;;;;;;;;6.20;99.90;;;;;;5049246;28;19913;-84
2021/12/08 07:57:48;;;;;;;;;;;6.20;99.90;;;;;;5053878;28;19938;-84
2021/12/08 08:00:21;;;;;;;;;;;6.20;99.90;;;;;;5040654;28;19927;-84
2021/12/08 08:02:47;;;;;;;;;;;6.20;99.90;;;;;;5060352;28;19917;-84
2021/12/08 08:05:14;;;;;;;;;;;6.20;99.90;;;;;;5064367;28;19920;-84
2021/12/08 08:07:41;;;;;;;;;;;6.30;99.90;;;;;;5061242;28;19909;-84
2021/12/08 08:10:13;;;;;;;;;;;6.30;99.90;;;;;;5051775;28;19913;-84
2021/12/08 08:12:39;;;;;;;;;;;6.30;99.90;;;;;;5045417;28;19948;-83
2021/12/08 08:15:07;;;;;;;;;;;6.30;99.90;;;;;;5058974;28;19913;-84
2021/12/08 08:17:37;;;;;;;;;;;6.40;26.50;;;;;;5033446;28;19916;-86
2021/12/08 08:20:13;;;;;;;;;;;6.40;1.00;;;;;;5055489;28;19928;-86
2021/12/08 08:22:39;;;;;;;;;;;6.50;1.00;;;;;;5052429;28;19912;-85
2021/12/08 08:25:06;;;;;;;;;;;6.50;1.00;;;;;;5038979;28;19916;-85
2021/12/08 08:27:31;;;;;;;;;;;6.50;1.00;;;;;;5051142;28;19966;-85
2021/12/08 08:29:57;;;;;;;;;;;6.60;1.00;;;;;;5028957;28;19909;-85
2021/12/08 08:32:28;;;;;;;;;;;6.60;99.90;;;;;;5043432;28;20414;-85
2021/12/08 08:34:57;;;;;;;;;;;6.70;99.90;;;;;;5046529;28;20307;-86
2021/12/08 08:37:23;;;;;;;;;;;6.80;99.90;;;;;;5052720;28;19972;-85
2021/12/08 08:39:53;;;;;;;;;;;6.80;99.90;;;;;;5053565;28;20007;-86
2021/12/08 08:42:21;;;;;;;;;;;6.80;99.90;;;;;;5035140;28;19916;-87
2021/12/08 08:45:03;;;;;;;;;;;6.90;99.90;;;;;;5027415;28;19944;-86
2021/12/08 08:47:33;;;;;;;;;;;7.00;99.90;;;;;;5045698;28;19913;-87
2021/12/08 08:49:58;;;;;;;;;;;7.00;99.90;;;;;;5046046;28;19976;-86
2021/12/08 08:52:33;;;;;;;;;;;7.10;99.90;;;;;;5056122;28;19997;-87
2021/12/08 08:55:00;;;;;;;;;;;7.10;31.50;;;;;;5059337;28;19913;-90
2021/12/08 08:57:34;;;;;;;;;;;7.10;1.00;;;;;;5054102;28;20283;-86
2021/12/08 09:00:05;;;;;;;;;;;7.20;1.00;;;;;;5057687;28;19916;-87
2021/12/08 09:02:37;;;;;;;;;;;7.20;99.90;;;;;;5048664;28;19913;-87
2021/12/08 09:05:06;;;;;;;;;;;7.30;99.90;;;;;;5045110;28;19913;-87
2021/12/08 09:07:34;;;;;;;;;;;7.30;99.90;;;;;;5048241;28;19913;-86
2021/12/08 09:10:03;;;;;;;;;;;7.40;11.70;;;;;;5057662;28;20285;-86
2021/12/08 09:12:34;;;;;;;;;;;7.50;1.00;;;;;;5074742;28;19908;-87
2021/12/08 09:15:06;;;;;;;;;;;7.50;1.00;;;;;;5065817;28;19917;-86
2021/12/08 09:17:38;;;;;;;;;;;7.60;1.00;;;;;;5055097;28;19912;-86
2021/12/08 09:20:24;;;;;;;;;;;7.80;99.90;;;;;;5049603;28;20025;-86
2021/12/08 09:22:56;;;;;;;;;;;7.80;99.90;;;;;;5049404;28;19919;-86
2021/12/08 09:25:32;;;;;;;;;;;7.70;99.90;;;;;;5033170;28;19952;-86
2021/12/08 09:28:00;;;;;;;;;;;7.80;99.90;;;;;;5054674;28;19913;-86
2021/12/08 09:30:36;;;;;;;;;;;7.70;99.90;;;;;;5035411;28;19913;-86
2021/12/08 09:33:10;;;;;;;;;;;7.70;99.90;;;;;;5063245;28;19912;-86
2021/12/08 09:35:48;;;;;;;;;;;7.70;1.00;;;;;;5029008;28;19991;-86
2021/12/08 09:38:20;;;;;;;;;;;7.80;1.00;;;;;;5035497;28;19921;-86
2021/12/08 09:40:59;;;;;;;;;;;7.80;1.00;;;;;;5057387;28;19916;-86
2021/12/08 09:43:28;;;;;;;;;;;7.80;1.00;;;;;;5064461;28;19912;-86
2021/12/08 09:46:02;;;;;;;;;;;7.90;1.00;;;;;;5064831;28;19917;-86
2021/12/08 09:48:29;;;;;;;;;;;8.00;1.00;;;;;;5064966;28;19913;-86
2021/12/08 09:50:59;;;;;;;;;;;8.10;99.90;;;;;;5063431;28;19917;-86
2021/12/08 09:53:26;;;;;;;;;;;8.10;99.90;;;;;;5054930;28;20289;-86
2021/12/08 09:55:52;;;;;;;;;;;8.30;99.90;;;;;;5041798;28;19913;-87
2021/12/08 09:58:17;;;;;;;;;;;8.30;99.90;;;;;;5050682;28;19935;-87
2021/12/08 10:00:44;;;;;;;;;;;8.40;99.90;;;;;;5045059;28;19929;-87
2021/12/08 10:03:13;;;;;;;;;;;8.50;99.90;;;;;;5054292;28;19936;-86
2021/12/08 10:05:41;;;;;;;;;;;8.50;99.90;;;;;;5032900;28;19913;-86
2021/12/08 10:08:07;;;;;;;;;;;8.60;99.90;;;;;;5058837;28;20321;-86
2021/12/08 10:10:32;;;;;;;;;;;8.50;99.90;;;;;;5030276;28;20028;-87
2021/12/08 10:12:58;;;;;;;;;;;8.40;1.00;;;;;;5044018;28;19913;-86
2021/12/08 10:15:24;;;;;;;;;;;8.30;1.00;;;;;;5059629;28;19916;-86
2021/12/08 10:17:50;;;;;;;;;;;8.40;1.00;;;;;;5059751;28;19966;-86
2021/12/08 10:20:18;;;;;;;;;;;8.50;1.00;;;;;;5026915;28;19920;-86
2021/12/08 10:22:45;;;;;;;;;;;8.60;1.00;;;;;;5034810;28;19924;-86
2021/12/08 10:25:16;;;;;;;;;;;8.70;1.00;;;;;;5053946;28;19909;-86
2021/12/08 10:28:00;;;;;;;;;;;8.70;1.00;;;;;;5051190;28;19920;-86
2021/12/08 10:30:29;;;;;;;;;;;8.80;1.00;;;;;;5043045;28;20006;-86
2021/12/08 10:32:54;;;;;;;;;;;8.80;1.00;;;;;;5037127;28;19913;-86
2021/12/08 10:36:03;;;;;;;;;;;8.90;1.00;;;;;;5031101;28;19936;-86
2021/12/08 10:38:35;;;;;;;;;;;9.00;1.00;;;;;;4976290;28;20341;-86
2021/12/08 10:41:03;;;;;;;;;;;9.10;1.00;;;;;;4962444;28;20298;-87
2021/12/08 10:43:29;;;;;;;;;;;9.10;1.00;;;;;;5006947;28;20605;-86
2021/12/08 10:46:00;;;;;;;;;;;9.10;1.00;;;;;;5042742;28;20004;-86
2021/12/08 10:48:33;;;;;;;;;;;9.10;1.00;;;;;;5060972;28;20403;-87
2021/12/08 10:56:33;;;;;;;;;;;9.30;1.00;;;;;;5046743;28;20582;-86
2021/12/08 10:58:59;;;;;;;;;;;9.20;1.00;;;;;;5046562;28;19963;-87
2021/12/08 11:01:27;;;;;;;;;;;9.10;1.00;;;;;;5060779;28;19913;-86
2021/12/08 11:04:01;;;;;;;;;;;9.00;1.00;;;;;;5060733;28;20355;-86
2021/12/08 11:06:30;;;;;;;;;;;8.90;1.00;;;;;;5064158;28;20011;-85
2021/12/08 11:08:56;;;;;;;;;;;8.80;1.00;;;;;;5060451;28;19913;-85
2021/12/08 11:11:24;;;;;;;;;;;8.80;1.00;;;;;;5066169;28;19917;-85
2021/12/08 11:13:52;;;;;;;;;;;8.80;1.00;;;;;;5051183;28;19960;-85
2021/12/08 11:16:19;;;;;;;;;;;8.80;1.00;;;;;;5048928;28;20376;-87
2021/12/08 11:18:46;;;;;;;;;;;8.80;1.00;;;;;;5061962;28;19958;-85
2021/12/08 11:21:21;;;;;;;;;;;9.00;1.00;;;;;;5045931;28;19913;-86
2021/12/08 11:23:49;;;;;;;;;;;9.60;1.00;;;;;;5048039;28;19913;-85
2021/12/08 11:26:26;;;;;;;;;;;10.20;1.00;;;;;;5061220;28;19999;-84
2021/12/08 11:28:58;;;;;;;;;;;10.80;1.00;;;;;;5051831;28;19982;-84
2021/12/08 11:31:26;;;;;;;;;;;11.20;1.00;;;;;;5041372;28;19917;-84
2021/12/08 11:34:00;;;;;;;;;;;11.70;1.00;;;;;;5037914;28;19944;-85
2021/12/08 11:36:27;;;;;;;;;;;12.10;1.00;;;;;;5054980;28;19912;-85
2021/12/08 11:38:53;;;;;;;;;;;12.60;1.00;;;;;;5060213;28;20273;-85
2021/12/08 11:41:27;;;;;;;;;;;12.80;1.00;;;;;;5048103;28;19924;-84
2021/12/08 11:43:57;;;;;;;;;;;13.00;1.00;;;;;;5056289;28;19917;-85
2021/12/08 11:46:23;;;;;;;;;;;13.20;1.00;;;;;;5055608;28;20315;-85
2021/12/08 11:48:59;;;;;;;;;;;13.70;1.00;;;;;;5031050;28;19967;-85
2021/12/08 11:51:24;;;;;;;;;;;14.80;1.00;;;;;;5042030;28;20466;-85
2021/12/08 11:53:50;;;;;;;;;;;15.90;1.00;;;;;;5068564;28;19908;-85
2021/12/08 11:56:32;;;;;;;;;;;16.50;1.00;;;;;;5051854;28;20336;-85
2021/12/08 11:58:57;;;;;;;;;;;16.80;1.00;;;;;;5049820;28;20262;-84
2021/12/08 12:01:23;;;;;;;;;;;16.60;1.00;;;;;;5054947;28;19927;-85
2021/12/08 12:03:49;;;;;;;;;;;16.20;1.00;;;;;;5052248;28;19919;-85
2021/12/08 12:06:14;;;;;;;;;;;15.50;1.00;;;;;;5044965;28;19913;-84
2021/12/08 12:08:40;;;;;;;;;;;14.60;1.00;;;;;;5042216;28;20337;-85
2021/12/08 12:11:05;;;;;;;;;;;13.80;1.00;;;;;;5051874;28;19963;-85
2021/12/08 12:13:31;;;;;;;;;;;13.20;99.90;;;;;;5043163;28;19919;-85
2021/12/08 12:15:57;;;;;;;;;;;12.80;99.90;;;;;;5059049;28;19921;-85
2021/12/08 12:18:23;;;;;;;;;;;12.50;99.90;;;;;;5047485;28;19913;-85
2021/12/08 12:20:51;;;;;;;;;;;12.20;99.90;;;;;;5056208;28;19916;-85
2021/12/08 12:23:19;;;;;;;;;;;11.90;99.90;;;;;;5043691;28;19920;-85
2021/12/08 12:25:50;;;;;;;;;;;11.60;99.90;;;;;;5033947;28;19920;-85
2021/12/08 12:28:25;;;;;;;;;;;11.40;99.90;;;;;;5035163;28;19970;-85
2021/12/08 12:31:02;;;;;;;;;;;11.30;99.90;;;;;;5054748;28;19920;-85
2021/12/08 12:33:28;;;;;;;;;;;11.20;99.90;;;;;;5025712;28;19982;-85
2021/12/08 12:35:57;;;;;;;;;;;11.80;1.00;;;;;;5053732;28;20383;-85
2021/12/08 12:38:35;;;;;;;;;;;12.60;1.00;;;;;;5048475;28;19922;-83
2021/12/08 12:41:02;;;;;;;;;;;13.70;1.00;;;;;;5048312;28;20002;-86
2021/12/08 12:43:29;;;;;;;;;;;14.80;1.00;;;;;;5037056;28;19971;-86
2021/12/08 12:46:05;;;;;;;;;;;15.40;99.90;;;;;;5051539;28;20469;-86
2021/12/08 12:48:31;;;;;;;;;;;15.50;99.90;;;;;;5055750;28;19919;-87
2021/12/08 12:51:03;;;;;;;;;;;15.60;99.90;;;;;;5049627;28;19963;-85
2021/12/08 12:53:37;;;;;;;;;;;15.00;99.90;;;;;;5064331;28;19958;-86
2021/12/08 12:56:03;;;;;;;;;;;14.10;99.90;;;;;;5033965;28;19939;-86
2021/12/08 12:58:43;;;;;;;;;;;13.30;99.90;;;;;;5062254;28;19913;-86
2021/12/08 13:01:11;;;;;;;;;;;12.80;99.90;;;;;;5050640;28;19925;-86
2021/12/08 13:03:45;;;;;;;;;;;12.40;99.90;;;;;;5059844;28;19920;-86
2021/12/08 13:06:16;;;;;;;;;;;12.00;99.90;;;;;;5060262;28;20449;-86
2021/12/08 13:08:41;;;;;;;;;;;11.80;99.90;;;;;;5061550;28;19913;-86
2021/12/08 13:11:25;;;;;;;;;;;11.70;99.90;;;;;;5034209;28;19920;-86
2021/12/08 13:13:53;;;;;;;;;;;11.60;99.90;;;;;;5060761;28;19919;-86
2021/12/08 13:16:28;;;;;;;;;;;11.70;99.90;;;;;;5050674;28;20296;-86
2021/12/08 13:19:12;;;;;;;;;;;11.70;99.90;;;;;;5035978;28;19913;-86
2021/12/08 13:21:37;;;;;;;;;;;11.70;99.90;;;;;;5049054;28;19917;-85
2021/12/08 13:24:03;;;;;;;;;;;11.50;99.90;;;;;;5019915;28;19921;-86
2021/12/08 13:26:29;;;;;;;;;;;11.50;99.90;;;;;;5042629;28;19913;-85
2021/12/08 13:29:10;;;;;;;;;;;11.50;99.90;;;;;;5049971;28;19913;-84
2021/12/08 13:34:04;;;;;;;;;;;11.30;99.90;;;;;;5058875;28;20018;-85
2021/12/08 13:36:32;;;;;;;;;;;11.30;99.90;;;;;;5034809;28;19952;-85
2021/12/08 13:38:57;;;;;;;;;;;11.20;99.90;;;;;;5054811;28;20361;-85
2021/12/08 13:41:24;;;;;;;;;;;11.20;99.90;;;;;;5036472;28;19963;-85
2021/12/08 13:43:50;;;;;;;;;;;11.00;99.90;;;;;;5053135;28;19959;-87
2021/12/08 13:46:34;;;;;;;;;;;10.90;99.90;;;;;;5057352;28;20347;-84
2021/12/08 13:49:10;;;;;;;;;;;10.90;99.90;;;;;;5062432;28;20004;-84
2021/12/08 13:51:36;;;;;;;;;;;10.70;99.90;;;;;;5052021;28;19995;-84
2021/12/08 13:54:20;;;;;;;;;;;10.60;99.90;;;;;;5031399;28;20495;-87
2021/12/08 13:56:45;;;;;;;;;;;10.40;99.90;;;;;;5054527;28;19913;-86
2021/12/08 13:59:11;;;;;;;;;;;10.30;99.90;;;;;;5073022;28;19916;-87
2021/12/08 14:01:37;;;;;;;;;;;10.30;99.90;;;;;;5036015;28;19987;-86
2021/12/08 14:04:14;;;;;;;;;;;10.20;99.90;;;;;;5054791;28;19915;-87
2021/12/08 14:06:39;;;;;;;;;;;10.30;99.90;;;;;;5033972;28;19921;-86
2021/12/08 14:09:13;;;;;;;;;;;10.40;99.90;;;;;;5048622;28;19966;-86
2021/12/08 14:11:38;;;;;;;;;;;10.90;99.90;;;;;;5041285;28;20389;-86
2021/12/08 14:14:07;;;;;;;;;;;11.30;99.90;;;;;;5054732;28;19919;-86
2021/12/08 14:16:33;;;;;;;;;;;11.40;99.90;;;;;;5067459;28;19917;-86
2021/12/08 14:18:59;;;;;;;;;;;11.40;99.90;;;;;;5050262;28;19913;-86
2021/12/08 14:21:25;;;;;;;;;;;11.40;99.90;;;;;;5055167;28;19917;-87
2021/12/08 14:23:58;;;;;;;;;;;11.70;99.90;;;;;;5040320;28;20345;-87
2021/12/08 14:26:28;;;;;;;;;;;12.00;99.90;;;;;;5045471;28;19920;-86
2021/12/08 14:28:55;;;;;;;;;;;12.10;99.90;;;;;;5059978;28;20486;-86
2021/12/08 14:31:26;;;;;;;;;;;12.20;99.90;;;;;;5047951;28;19934;-86
2021/12/08 14:33:53;;;;;;;;;;;12.30;99.90;;;;;;5055169;28;19919;-85
2021/12/08 14:36:25;;;;;;;;;;;12.20;99.90;;;;;;5059187;28;19912;-85
2021/12/08 14:38:52;;;;;;;;;;;12.10;99.90;;;;;;5057433;28;19916;-87
2021/12/08 14:41:21;;;;;;;;;;;12.00;99.90;;;;;;5028151;28;20377;-88
2021/12/08 14:43:51;;;;;;;;;;;11.90;99.90;;;;;;5037538;28;19917;-87
2021/12/08 14:46:18;;;;;;;;;;;11.70;99.90;;;;;;5058033;28;19943;-87
2021/12/08 14:48:56;;;;;;;;;;;11.60;99.90;;;;;;5021605;28;19988;-87
2021/12/08 14:51:23;;;;;;;;;;;11.40;99.90;;;;;;5050588;28;19967;-88
2021/12/08 14:53:48;;;;;;;;;;;11.20;99.90;;;;;;5060255;28;19948;-87
2021/12/08 14:56:14;;;;;;;;;;;11.00;99.90;;;;;;5050429;28;20648;-87
2021/12/08 14:58:39;;;;;;;;;;;10.70;99.90;;;;;;5037612;28;19917;-88
2021/12/08 15:01:12;;;;;;;;;;;10.50;99.90;;;;;;5047307;28;19921;-88
2021/12/08 15:03:42;;;;;;;;;;;10.30;99.90;;;;;;5055413;28;19909;-86
2021/12/08 15:06:14;;;;;;;;;;;10.00;99.90;;;;;;5037286;28;20340;-88
2021/12/08 15:08:40;;;;;;;;;;;9.80;99.90;;;;;;5052908;28;19958;-87
2021/12/08 15:11:06;;;;;;;;;;;9.60;99.90;;;;;;5060184;28;20010;-85
2021/12/08 15:13:32;;;;;;;;;;;9.50;99.90;;;;;;5064475;28;19913;-86
2021/12/08 15:15:57;;;;;;;;;;;9.30;99.90;;;;;;5055158;28;19921;-86
2021/12/08 15:18:24;;;;;;;;;;;9.10;99.90;;;;;;5037125;28;19912;-88
2021/12/08 15:20:59;;;;;;;;;;;9.00;99.90;;;;;;5058240;28;19917;-89
2021/12/08 15:23:39;;;;;;;;;;;8.80;99.90;;;;;;5041740;28;19935;-88